Time;durP1;ratioP1;P1;durP2;ratioP2;P2;SDS_P1;SDS_P2;PMS_P1;PMS_P2;Temp;Humidity;BMP_temperature;BMP_pressure;BME280_temperature;BME280_humidity;BME280_pressure;Samples;Min_cycle;Max_cycle;Signal;HPM_P1;HPM_P2
2023/01/27 00:00:18;;;;;;;35.13;12.25;;;3.00;99.90;;;;;;5013632;28;20026;-68
2023/01/27 00:02:45;;;;;;;31.88;10.48;;;3.00;99.90;;;;;;5045573;28;20026;-68
2023/01/27 00:05:12;;;;;;;37.88;11.55;;;3.00;99.90;;;;;;5045729;28;20087;-69
2023/01/27 00:07:38;;;;;;;33.30;11.77;;;3.10;99.90;;;;;;5045758;28;20030;-69
2023/01/27 00:10:05;;;;;;;34.88;12.02;;;3.10;99.90;;;;;;5012269;28;20034;-69
2023/01/27 00:15:16;;;;;;;39.13;12.75;;;2.90;99.90;;;;;;5013713;28;20057;-70
2023/01/27 00:17:41;;;;;;;41.13;12.85;;;2.90;99.90;;;;;;5013434;28;20397;-69
2023/01/27 00:20:08;;;;;;;31.63;10.18;;;2.80;99.90;;;;;;5013477;28;20018;-69
2023/01/27 00:25:18;;;;;;;31.02;10.20;;;3.00;99.90;;;;;;5013657;28;20056;-69
2023/01/27 00:27:44;;;;;;;27.58;9.98;;;3.10;99.90;;;;;;5013603;28;20452;-69
2023/01/27 00:30:10;;;;;;;36.88;11.30;;;3.20;99.90;;;;;;5012668;28;20084;-69
2023/01/27 00:35:20;;;;;;;37.10;12.73;;;3.30;99.90;;;;;;5013548;28;20041;-69
2023/01/27 00:41:20;;;;;;;38.65;11.50;;;3.20;99.90;;;;;;5013544;28;20025;-69
2023/01/27 00:43:46;;;;;;;36.58;11.55;;;3.20;99.90;;;;;;5045062;28;20478;-69
2023/01/27 00:46:12;;;;;;;42.83;13.25;;;3.30;99.90;;;;;;5013233;28;20026;-69
2023/01/27 00:48:37;;;;;;;38.38;12.88;;;3.30;99.90;;;;;;5013121;28;20026;-69
2023/01/27 00:51:03;;;;;;;34.78;12.27;;;3.40;99.90;;;;;;5048117;28;20029;-69
2023/01/27 00:53:29;;;;;;;28.13;11.48;;;3.40;99.90;;;;;;5049470;28;20026;-69
2023/01/27 00:55:57;;;;;;;42.35;12.43;;;3.30;99.90;;;;;;5016788;28;20026;-69
2023/01/27 00:58:23;;;;;;;33.42;12.70;;;3.30;99.90;;;;;;5016820;28;20014;-69
2023/01/27 01:00:48;;;;;;;32.80;11.57;;;3.40;99.90;;;;;;5015474;28;20026;-69
2023/01/27 01:03:14;;;;;;;29.70;11.57;;;3.40;99.90;;;;;;5016625;28;20025;-69
2023/01/27 01:05:40;;;;;;;29.88;10.95;;;3.40;99.90;;;;;;5048247;28;20405;-69
2023/01/27 01:08:06;;;;;;;31.92;11.48;;;3.40;99.90;;;;;;5048754;28;20029;-69
2023/01/27 01:10:31;;;;;;;32.65;10.63;;;3.30;99.90;;;;;;5048625;28;20052;-69
2023/01/27 01:12:57;;;;;;;31.10;10.82;;;3.40;99.90;;;;;;5048665;28;20033;-70
2023/01/27 01:15:22;;;;;;;29.80;10.38;;;3.30;99.90;;;;;;5048285;28;20021;-70
2023/01/27 01:17:48;;;;;;;30.80;12.23;;;3.30;99.90;;;;;;5048295;28;20022;-69
2023/01/27 01:20:13;;;;;;;23.67;9.18;;;3.30;99.90;;;;;;5016414;28;20025;-70
2023/01/27 01:22:39;;;;;;;28.95;9.60;;;3.30;99.90;;;;;;5015402;28;20473;-70
2023/01/27 01:25:06;;;;;;;28.17;9.95;;;3.30;99.90;;;;;;5016256;28;20084;-70
2023/01/27 01:27:32;;;;;;;26.73;10.65;;;3.30;99.90;;;;;;5015953;28;20026;-70
2023/01/27 01:29:57;;;;;;;27.55;9.82;;;3.30;99.90;;;;;;5048094;28;20029;-70
2023/01/27 01:32:23;;;;;;;28.65;9.57;;;3.20;99.90;;;;;;5015243;28;20026;-70
2023/01/27 01:34:48;;;;;;;23.30;8.88;;;3.20;99.90;;;;;;5015204;28;20022;-69
2023/01/27 01:37:14;;;;;;;26.35;8.82;;;3.30;99.90;;;;;;5014812;28;20084;-69
2023/01/27 01:39:39;;;;;;;25.60;9.02;;;3.30;99.90;;;;;;5016115;28;20036;-70
2023/01/27 01:42:05;;;;;;;25.70;8.52;;;3.30;99.90;;;;;;5015353;28;20036;-70
2023/01/27 01:44:31;;;;;;;25.33;9.05;;;3.30;99.90;;;;;;5014718;28;20026;-69
2023/01/27 01:46:58;;;;;;;26.08;8.40;;;3.30;99.90;;;;;;5015934;28;20030;-70
2023/01/27 01:49:33;;;;;;;20.92;8.80;;;3.30;99.90;;;;;;5016036;28;20025;-70
2023/01/27 01:52:20;;;;;;;19.50;8.40;;;3.30;99.90;;;;;;5015411;28;20038;-70
2023/01/27 01:54:50;;;;;;;23.73;8.55;;;3.30;99.90;;;;;;5048288;28;20030;-69
2023/01/27 01:57:24;;;;;;;26.70;8.27;;;3.30;99.90;;;;;;5014510;28;20018;-70
2023/01/27 01:59:55;;;;;;;22.58;8.55;;;3.30;99.90;;;;;;5015701;28;20045;-70
2023/01/27 02:02:22;;;;;;;24.58;9.25;;;3.20;99.90;;;;;;5014022;28;20117;-70
2023/01/27 02:05:17;;;;;;;22.65;7.88;;;3.30;99.90;;;;;;5014621;28;20034;-69
2023/01/27 02:08:01;;;;;;;23.35;7.68;;;3.30;99.90;;;;;;5014365;28;20025;-70
2023/01/27 02:10:27;;;;;;;17.85;7.20;;;3.30;99.90;;;;;;5014242;28;20116;-70
2023/01/27 02:12:52;;;;;;;24.58;8.07;;;3.30;99.90;;;;;;5014378;28;20592;-70
2023/01/27 02:15:20;;;;;;;20.35;8.30;;;3.30;99.90;;;;;;5014377;28;20025;-69
2023/01/27 02:17:46;;;;;;;21.05;8.57;;;3.30;99.90;;;;;;5015012;28;20088;-70
2023/01/27 02:20:52;;;;;;;20.92;8.10;;;3.30;99.90;;;;;;5014303;28;20049;-70
2023/01/27 02:23:36;;;;;;;17.77;7.50;;;3.30;99.90;;;;;;4974694;28;20042;-70
2023/01/27 02:26:22;;;;;;;23.25;8.32;;;3.40;99.90;;;;;;4974448;28;20034;-70
2023/01/27 02:29:01;;;;;;;22.58;7.75;;;3.30;99.90;;;;;;4974099;28;20106;-70
2023/01/27 02:31:27;;;;;;;16.73;7.50;;;3.30;99.90;;;;;;4973943;28;20430;-70
2023/01/27 02:33:58;;;;;;;19.58;8.63;;;3.30;99.90;;;;;;4974126;28;20035;-70
2023/01/27 02:36:27;;;;;;;25.52;9.02;;;3.30;99.90;;;;;;4958332;28;20050;-70
2023/01/27 02:38:55;;;;;;;20.98;8.27;;;3.40;99.90;;;;;;4981314;28;20027;-70
2023/01/27 02:41:32;;;;;;;21.35;8.40;;;3.30;99.90;;;;;;4973953;28;20118;-70
2023/01/27 02:43:58;;;;;;;17.33;7.30;;;3.40;99.90;;;;;;4957650;28;20026;-70
2023/01/27 02:46:24;;;;;;;17.10;7.25;;;3.40;99.90;;;;;;4990103;28;20130;-70
2023/01/27 02:48:50;;;;;;;20.77;7.75;;;3.40;99.90;;;;;;4957637;28;20121;-70
2023/01/27 02:51:15;;;;;;;18.85;8.40;;;3.40;99.90;;;;;;4973533;28;20058;-70
2023/01/27 02:53:41;;;;;;;19.83;7.20;;;3.40;99.90;;;;;;4989974;28;20074;-69
2023/01/27 02:56:07;;;;;;;19.83;7.68;;;3.50;99.90;;;;;;4957342;28;20077;-70
2023/01/27 02:58:32;;;;;;;16.90;6.95;;;3.50;99.90;;;;;;4978996;28;20092;-70
2023/01/27 03:00:58;;;;;;;20.23;8.73;;;3.40;99.90;;;;;;5013429;28;20025;-70
2023/01/27 03:03:23;;;;;;;15.18;6.88;;;3.40;99.90;;;;;;5014599;28;20108;-70
2023/01/27 03:05:50;;;;;;;20.45;7.78;;;3.40;99.90;;;;;;5015128;28;20036;-70
2023/01/27 03:08:17;;;;;;;22.10;7.82;;;3.40;99.90;;;;;;5013200;28;20048;-69
2023/01/27 03:10:43;;;;;;;24.80;7.47;;;3.40;99.90;;;;;;5013169;28;20022;-70
2023/01/27 03:13:08;;;;;;;21.60;8.63;;;3.40;99.90;;;;;;5013746;28;20022;-70
2023/01/27 03:18:18;;;;;;;18.25;7.90;;;3.40;99.90;;;;;;5014605;28;20037;-70
2023/01/27 03:20:46;;;;;;;21.45;7.43;;;3.40;99.90;;;;;;5013403;28;20018;-70
2023/01/27 03:23:14;;;;;;;18.75;7.95;;;3.40;99.90;;;;;;5013320;28;20030;-70
2023/01/27 03:25:42;;;;;;;24.42;8.43;;;3.40;99.90;;;;;;5012920;28;20018;-70
2023/01/27 03:28:08;;;;;;;21.90;8.07;;;3.40;99.90;;;;;;5014336;28;20460;-70
2023/01/27 03:30:33;;;;;;;18.48;7.80;;;3.50;99.90;;;;;;5012878;28;20064;-70
2023/01/27 03:32:59;;;;;;;21.08;7.53;;;3.50;99.90;;;;;;5012840;28;20116;-70
2023/01/27 03:35:33;;;;;;;19.25;8.48;;;3.50;99.90;;;;;;5012833;28;20160;-71
2023/01/27 03:46:15;;;;;;;18.73;7.40;;;3.30;99.90;;;;;;5014541;28;20057;-70
2023/01/27 03:48:41;;;;;;;20.85;7.60;;;3.30;99.90;;;;;;5012592;28;20029;-70
2023/01/27 03:51:08;;;;;;;19.30;7.60;;;3.30;99.90;;;;;;5012540;28;20041;-70
2023/01/27 03:53:35;;;;;;;18.45;7.45;;;3.30;99.90;;;;;;5012555;28;20026;-69
2023/01/27 03:56:02;;;;;;;22.45;8.40;;;3.40;99.90;;;;;;5014184;28;20495;-69
2023/01/27 03:58:33;;;;;;;17.13;6.13;;;3.40;99.90;;;;;;5013267;28;20026;-70
2023/01/27 04:01:02;;;;;;;17.40;7.63;;;3.40;99.90;;;;;;5013823;28;20037;-70
2023/01/27 04:09:09;;;;;;;18.52;6.65;;;3.40;99.90;;;;;;5013980;28;20156;-70
2023/01/27 04:14:19;;;;;;;15.25;6.68;;;3.50;99.90;;;;;;5013940;28;20477;-70
2023/01/27 04:16:44;;;;;;;16.38;6.57;;;3.60;99.90;;;;;;5013177;28;20026;-70
2023/01/27 04:19:11;;;;;;;14.45;6.30;;;3.60;99.90;;;;;;5013658;28;20086;-70
2023/01/27 04:21:37;;;;;;;17.50;7.65;;;3.60;99.90;;;;;;5012244;28;20117;-70
2023/01/27 04:24:07;;;;;;;16.83;6.50;;;3.50;99.90;;;;;;5014093;28;20107;-69
2023/01/27 04:26:33;;;;;;;18.90;7.32;;;3.40;99.90;;;;;;5017858;28;20053;-70
2023/01/27 04:29:00;;;;;;;18.20;6.78;;;3.30;99.90;;;;;;5016508;28;20093;-70
2023/01/27 04:31:25;;;;;;;15.55;5.90;;;3.20;99.90;;;;;;5017222;28;20474;-70
2023/01/27 04:33:51;;;;;;;17.63;7.53;;;3.20;99.90;;;;;;5017259;28;20076;-69
2023/01/27 04:36:17;;;;;;;20.88;7.25;;;3.20;99.90;;;;;;5016090;28;20022;-70
2023/01/27 04:38:44;;;;;;;16.92;7.35;;;3.30;99.90;;;;;;5016331;28;20022;-70
2023/01/27 04:41:09;;;;;;;19.95;7.15;;;3.30;99.90;;;;;;5017297;28;20026;-70
2023/01/27 04:44:07;;;;;;;22.13;8.23;;;3.20;99.90;;;;;;5016928;28;20044;-69
2023/01/27 04:46:33;;;;;;;20.77;7.25;;;3.20;99.90;;;;;;5023179;28;20061;-69
2023/01/27 04:48:59;;;;;;;17.23;7.05;;;3.20;99.90;;;;;;5016190;28;20441;-69
2023/01/27 04:51:26;;;;;;;17.35;5.82;;;3.20;99.90;;;;;;5015773;28;20053;-69
2023/01/27 04:53:52;;;;;;;14.18;6.05;;;3.20;99.90;;;;;;5015747;28;20025;-70
2023/01/27 04:56:20;;;;;;;13.57;5.88;;;3.10;99.90;;;;;;5016042;28;20024;-70
2023/01/27 04:58:46;;;;;;;18.90;7.22;;;3.20;99.90;;;;;;5016837;28;20022;-70
2023/01/27 05:01:11;;;;;;;15.95;6.22;;;3.10;99.90;;;;;;5016965;28;20076;-69
2023/01/27 05:03:37;;;;;;;16.65;5.97;;;3.10;99.90;;;;;;5015841;28;20038;-69
2023/01/27 05:06:03;;;;;;;16.67;7.18;;;3.10;99.90;;;;;;5016145;28;20030;-70
2023/01/27 05:08:29;;;;;;;18.58;7.30;;;3.10;99.90;;;;;;5016822;28;20018;-69
2023/01/27 05:10:55;;;;;;;14.88;7.32;;;3.20;99.90;;;;;;5016459;28;20034;-70
2023/01/27 05:13:21;;;;;;;13.60;6.40;;;3.20;99.90;;;;;;5015343;28;20022;-70
2023/01/27 05:15:46;;;;;;;16.88;6.10;;;3.30;99.90;;;;;;5015207;28;20017;-70
2023/01/27 05:18:12;;;;;;;17.80;7.80;;;3.40;99.90;;;;;;5015242;28;20018;-70
2023/01/27 05:20:38;;;;;;;18.00;5.97;;;3.50;99.90;;;;;;5015266;28;20026;-70
2023/01/27 05:25:47;;;;;;;14.00;6.82;;;3.40;99.90;;;;;;5016588;28;20044;-70
2023/01/27 05:28:13;;;;;;;13.55;6.22;;;3.50;99.90;;;;;;5016208;28;20477;-70
2023/01/27 05:30:38;;;;;;;13.93;5.95;;;3.50;99.90;;;;;;5014975;28;20040;-70
2023/01/27 05:33:04;;;;;;;15.45;6.45;;;3.40;99.90;;;;;;5015847;28;20026;-70
2023/01/27 05:35:33;;;;;;;15.48;6.22;;;3.40;99.90;;;;;;5015394;28;20028;-69
2023/01/27 05:37:59;;;;;;;13.77;5.95;;;3.40;99.90;;;;;;5016160;28;20029;-70
2023/01/27 05:40:25;;;;;;;10.85;5.15;;;3.40;99.90;;;;;;5016561;28;20022;-70
2023/01/27 05:42:54;;;;;;;13.07;5.15;;;3.40;99.90;;;;;;5015215;28;20030;-70
2023/01/27 05:45:19;;;;;;;13.88;5.82;;;3.40;99.90;;;;;;5014768;28;20022;-70
2023/01/27 05:47:50;;;;;;;10.35;4.60;;;3.40;99.90;;;;;;5016618;28;20021;-70
2023/01/27 05:50:16;;;;;;;13.55;5.53;;;3.50;99.90;;;;;;5019465;28;20025;-70
2023/01/27 05:52:42;;;;;;;10.32;4.32;;;3.60;99.90;;;;;;5014783;28;20456;-70
2023/01/27 05:55:07;;;;;;;9.20;4.70;;;3.60;99.90;;;;;;5014874;28;20045;-69
2023/01/27 05:57:33;;;;;;;7.32;4.15;;;3.70;99.90;;;;;;5014577;28;20109;-70
2023/01/27 05:59:58;;;;;;;8.27;4.32;;;3.80;99.90;;;;;;5015964;28;20018;-70
2023/01/27 06:02:24;;;;;;;8.27;4.38;;;3.80;99.90;;;;;;5016639;28;20025;-70
2023/01/27 06:04:49;;;;;;;11.50;4.50;;;3.80;99.90;;;;;;5038118;22;20041;-70
2023/01/27 06:07:15;;;;;;;8.65;4.05;;;3.80;99.90;;;;;;5016043;28;20018;-71
2023/01/27 06:09:40;;;;;;;7.53;4.50;;;3.70;99.90;;;;;;5014347;28;20024;-70
2023/01/27 06:12:06;;;;;;;7.32;4.00;;;3.80;99.90;;;;;;5014108;28;20393;-71
2023/01/27 06:14:31;;;;;;;8.02;3.78;;;3.80;99.90;;;;;;5015245;28;20121;-70
2023/01/27 06:16:59;;;;;;;10.23;4.53;;;3.80;99.90;;;;;;5014911;28;20037;-70
2023/01/27 06:19:25;;;;;;;8.13;4.18;;;3.60;99.90;;;;;;5014137;28;20029;-71
2023/01/27 06:21:50;;;;;;;7.43;3.90;;;3.60;99.90;;;;;;5014165;28;20109;-71
2023/01/27 06:24:16;;;;;;;8.25;4.55;;;3.40;99.90;;;;;;5013930;28;20056;-71
2023/01/27 06:26:41;;;;;;;9.82;5.18;;;3.40;99.90;;;;;;5014693;28;20026;-71
2023/01/27 06:29:07;;;;;;;7.95;4.53;;;3.60;99.90;;;;;;5013916;28;20052;-71
2023/01/27 06:31:32;;;;;;;9.18;4.50;;;3.50;99.90;;;;;;5013781;28;20026;-71
2023/01/27 06:33:58;;;;;;;8.70;4.70;;;3.50;99.90;;;;;;5013702;28;20029;-70
2023/01/27 06:36:23;;;;;;;8.00;4.20;;;3.60;99.90;;;;;;5013649;28;20029;-71
2023/01/27 06:38:50;;;;;;;7.88;4.25;;;3.70;99.90;;;;;;5013721;28;20057;-71
2023/01/27 06:41:15;;;;;;;10.57;4.22;;;3.70;99.90;;;;;;5014982;28;20105;-71
2023/01/27 06:43:41;;;;;;;10.40;5.32;;;3.50;99.90;;;;;;5013611;28;20117;-71
2023/01/27 06:46:06;;;;;;;8.25;4.78;;;3.50;99.90;;;;;;5014070;28;20116;-71
2023/01/27 06:48:32;;;;;;;7.30;3.90;;;3.60;99.90;;;;;;5013473;28;20079;-71
2023/01/27 06:50:58;;;;;;;8.27;4.70;;;3.60;99.90;;;;;;5013397;28;20079;-71
2023/01/27 06:53:24;;;;;;;10.70;5.15;;;3.60;99.90;;;;;;5013502;28;20018;-71
2023/01/27 06:55:58;;;;;;;7.80;4.70;;;3.70;99.90;;;;;;5013439;28;20504;-70
2023/01/27 06:58:24;;;;;;;10.90;4.50;;;3.60;99.90;;;;;;5013526;28;20030;-71
2023/01/27 07:00:50;;;;;;;9.23;5.03;;;3.70;99.90;;;;;;5013244;28;20033;-71
2023/01/27 07:03:15;;;;;;;15.57;5.45;;;3.70;99.90;;;;;;5013238;28;20026;-71
2023/01/27 07:05:41;;;;;;;9.52;4.72;;;3.80;99.90;;;;;;5013371;28;20046;-71
2023/01/27 07:08:07;;;;;;;12.23;4.82;;;3.80;99.90;;;;;;5014058;28;20022;-71
2023/01/27 07:10:32;;;;;;;9.27;4.13;;;3.90;99.90;;;;;;5013163;28;20030;-71
2023/01/27 07:13:09;;;;;;;10.23;5.13;;;3.90;99.90;;;;;;5013393;28;20033;-71
2023/01/27 07:15:35;;;;;;;7.32;4.53;;;4.00;99.90;;;;;;5013030;28;20018;-71
2023/01/27 07:18:02;;;;;;;6.97;4.30;;;4.00;99.90;;;;;;5012972;28;20168;-70
2023/01/27 07:20:29;;;;;;;7.15;4.35;;;4.10;99.90;;;;;;5013790;28;20025;-71
2023/01/27 07:23:03;;;;;;;8.55;4.03;;;4.10;99.90;;;;;;5013500;28;20080;-71
2023/01/27 07:25:31;;;;;;;6.40;3.67;;;4.10;99.90;;;;;;5014189;28;20109;-71
2023/01/27 07:27:57;;;;;;;7.05;3.80;;;4.10;99.90;;;;;;5012919;28;20030;-71
2023/01/27 07:30:24;;;;;;;5.88;3.47;;;4.10;99.90;;;;;;5012717;28;20118;-71
2023/01/27 07:32:49;;;;;;;9.25;3.65;;;4.10;99.90;;;;;;5013888;28;20036;-71
2023/01/27 07:35:16;;;;;;;7.45;3.67;;;4.10;99.90;;;;;;5013843;28;20017;-70
2023/01/27 07:37:41;;;;;;;9.95;4.32;;;4.00;99.90;;;;;;5012697;28;20022;-71
2023/01/27 07:40:08;;;;;;;8.27;3.55;;;4.10;99.90;;;;;;5014229;28;20581;-71
2023/01/27 07:42:34;;;;;;;7.80;3.60;;;4.10;99.90;;;;;;5012602;28;20032;-70
2023/01/27 07:44:59;;;;;;;6.03;3.47;;;4.10;99.90;;;;;;5014042;28;20026;-70
2023/01/27 07:47:25;;;;;;;6.32;3.80;;;4.10;99.90;;;;;;5012513;28;20136;-71
2023/01/27 07:49:51;;;;;;;6.00;3.20;;;4.10;99.90;;;;;;5014087;28;20026;-71
2023/01/27 07:52:16;;;;;;;5.55;3.10;;;4.20;99.90;;;;;;5013700;28;20057;-71
2023/01/27 07:54:42;;;;;;;7.65;3.58;;;4.10;99.90;;;;;;5013610;28;20071;-70
2023/01/27 07:57:08;;;;;;;6.90;4.07;;;4.10;99.90;;;;;;5013683;28;20479;-70
2023/01/27 07:59:33;;;;;;;6.40;3.35;;;4.10;99.90;;;;;;5012938;28;20026;-71
2023/01/27 08:01:59;;;;;;;5.57;3.40;;;4.10;99.90;;;;;;5013934;28;20030;-71
2023/01/27 08:04:24;;;;;;;7.85;3.90;;;4.10;99.90;;;;;;5012264;28;20034;-70
2023/01/27 08:06:50;;;;;;;7.22;3.55;;;4.10;99.90;;;;;;5012384;28;20026;-71
2023/01/27 08:09:15;;;;;;;6.25;3.30;;;4.10;99.90;;;;;;5012337;28;20022;-71
2023/01/27 08:11:41;;;;;;;5.82;3.42;;;4.20;99.90;;;;;;5012196;28;20051;-71
2023/01/27 08:14:06;;;;;;;5.47;3.50;;;4.10;99.90;;;;;;5012173;28;20048;-71
2023/01/27 08:16:32;;;;;;;7.82;3.60;;;4.20;99.90;;;;;;5012216;28;20049;-71
2023/01/27 08:18:57;;;;;;;6.20;2.90;;;4.20;99.90;;;;;;5012606;28;20080;-71
2023/01/27 08:21:24;;;;;;;7.53;3.83;;;4.20;99.90;;;;;;5012529;28;20033;-71
2023/01/27 08:23:51;;;;;;;6.45;3.40;;;4.20;99.90;;;;;;5014009;28;20029;-71
2023/01/27 08:26:17;;;;;;;6.18;3.05;;;4.20;99.90;;;;;;5013315;28;20113;-70
2023/01/27 08:28:42;;;;;;;5.03;2.80;;;4.20;99.90;;;;;;5012210;28;20117;-70
2023/01/27 08:31:11;;;;;;;4.10;2.67;;;4.30;99.90;;;;;;5012087;28;20057;-71
2023/01/27 08:33:37;;;;;;;5.20;3.22;;;4.30;99.90;;;;;;5013308;28;20045;-71
2023/01/27 08:36:09;;;;;;;5.13;3.17;;;4.20;99.90;;;;;;5012108;28;20045;-71
2023/01/27 08:38:36;;;;;;;;;;;4.20;99.90;;;;;;5013358;28;20029;-71
2023/01/27 08:41:06;;;;;;;5.35;2.90;;;4.10;99.90;;;;;;5012071;28;19912;-71
2023/01/27 08:43:32;;;;;;;7.03;3.83;;;4.20;99.90;;;;;;5013746;28;20022;-71
2023/01/27 08:45:59;;;;;;;8.30;3.70;;;4.20;99.90;;;;;;5013164;28;20022;-70
2023/01/27 08:48:26;;;;;;;7.47;3.53;;;4.20;99.90;;;;;;5011992;28;20079;-71
2023/01/27 08:50:51;;;;;;;7.47;3.50;;;4.20;99.90;;;;;;5013408;28;20539;-71
2023/01/27 08:53:17;;;;;;;6.57;3.80;;;4.10;99.90;;;;;;5011895;28;20030;-71
2023/01/27 08:55:42;;;;;;;7.00;3.47;;;4.10;99.90;;;;;;5013134;28;20029;-73
2023/01/27 08:58:08;;;;;;;6.40;3.75;;;4.10;99.90;;;;;;5011933;28;20156;-74
2023/01/27 09:00:33;;;;;;;6.93;3.50;;;4.20;99.90;;;;;;5011939;28;20032;-71
2023/01/27 09:02:59;;;;;;;7.05;3.17;;;4.30;99.90;;;;;;5012181;28;20026;-71
2023/01/27 09:05:24;;;;;;;5.40;3.25;;;4.30;99.90;;;;;;5012475;28;20037;-70
2023/01/27 09:07:50;;;;;;;5.88;3.08;;;4.30;99.90;;;;;;5012099;28;20026;-71
2023/01/27 09:10:16;;;;;;;3.92;2.92;;;4.30;99.90;;;;;;5012987;28;20026;-71
2023/01/27 09:12:43;;;;;;;5.65;3.20;;;4.20;99.90;;;;;;5016605;28;20026;-71
2023/01/27 09:15:09;;;;;;;6.28;3.25;;;4.10;99.90;;;;;;5015191;28;20026;-70
2023/01/27 09:17:36;;;;;;;6.00;3.17;;;4.20;99.90;;;;;;5016497;28;20018;-71
2023/01/27 09:20:02;;;;;;;5.82;3.60;;;4.20;99.90;;;;;;5015177;28;20389;-71
2023/01/27 09:22:27;;;;;;;5.15;3.00;;;4.20;99.90;;;;;;5015123;28;20029;-71
2023/01/27 09:24:52;;;;;;;5.38;3.22;;;4.20;99.90;;;;;;5016290;28;20045;-71
2023/01/27 09:27:18;;;;;;;7.00;3.00;;;4.20;99.90;;;;;;5015130;28;20026;-71
2023/01/27 09:29:43;;;;;;;5.10;3.20;;;4.30;99.90;;;;;;5015035;28;20068;-71
2023/01/27 09:32:11;;;;;;;5.25;3.53;;;4.30;99.90;;;;;;5016166;28;20041;-71
2023/01/27 09:34:40;;;;;;;3.28;2.38;;;4.40;99.90;;;;;;5016073;28;20029;-70
2023/01/27 09:37:11;;;;;;;5.00;3.03;;;4.40;99.90;;;;;;5016476;28;20469;-71
2023/01/27 09:39:42;;;;;;;4.50;3.00;;;4.40;99.90;;;;;;5015405;28;20112;-71
2023/01/27 09:42:26;;;;;;;4.25;2.58;;;4.50;99.90;;;;;;5014849;28;20037;-71
2023/01/27 09:45:34;;;;;;;4.00;2.60;;;4.50;99.90;;;;;;5014963;28;20033;-70
2023/01/27 09:48:09;;;;;;;5.35;2.38;;;4.40;99.90;;;;;;5015897;28;20074;-70
2023/01/27 09:50:41;;;;;;;6.15;2.92;;;4.40;99.90;;;;;;5014755;28;20121;-71
2023/01/27 09:54:06;;;;;;;4.68;2.60;;;4.50;99.90;;;;;;5014700;28;20029;-71
2023/01/27 09:56:59;;;;;;;2.75;1.92;;;4.50;99.90;;;;;;4978612;28;20052;-71
2023/01/27 10:00:06;;;;;;;4.68;2.55;;;4.60;99.90;;;;;;5013865;28;20116;-71
2023/01/27 10:03:01;;;;;;;4.95;2.78;;;4.70;99.90;;;;;;4994079;28;20214;-72
2023/01/27 10:05:54;;;;;;;4.00;2.42;;;4.70;99.90;;;;;;5014367;28;20493;-72
2023/01/27 10:08:41;;;;;;;4.43;2.20;;;4.60;99.90;;;;;;5014706;28;20057;-71
2023/01/27 10:11:12;;;;;;;5.32;3.42;;;4.60;99.90;;;;;;5015495;28;20065;-72
2023/01/27 10:13:54;;;;;;;6.45;2.90;;;4.70;99.90;;;;;;5015503;28;20018;-70
2023/01/27 10:16:37;;;;;;;4.32;2.60;;;4.70;99.90;;;;;;5014884;28;20068;-70
2023/01/27 10:19:08;;;;;;;2.92;2.30;;;4.60;99.90;;;;;;5015701;28;20041;-70
2023/01/27 10:21:56;;;;;;;3.03;2.47;;;4.60;99.90;;;;;;5014196;28;20488;-71
2023/01/27 10:24:38;;;;;;;4.00;2.28;;;4.60;99.90;;;;;;5013972;28;20034;-71
2023/01/27 10:27:21;;;;;;;4.95;2.72;;;4.60;99.90;;;;;;5015561;28;20030;-71
2023/01/27 10:29:57;;;;;;;3.00;1.88;;;4.60;99.90;;;;;;5015540;28;20421;-71
2023/01/27 10:32:43;;;;;;;3.83;2.55;;;4.70;99.90;;;;;;5013820;28;20076;-71
2023/01/27 10:35:47;;;;;;;2.30;2.10;;;4.70;99.90;;;;;;5014784;28;20030;-70
2023/01/27 10:38:18;;;;;;;4.07;2.10;;;4.50;99.90;;;;;;5008376;28;20080;-70
2023/01/27 10:41:05;;;;;;;3.88;2.30;;;4.50;99.90;;;;;;5013848;28;20025;-71
2023/01/27 10:43:36;;;;;;;2.08;1.85;;;4.70;99.90;;;;;;5013826;28;20045;-70
2023/01/27 10:46:15;;;;;;;3.80;1.75;;;4.70;99.90;;;;;;5013627;28;20029;-69
2023/01/27 10:48:53;;;;;;;2.65;2.05;;;4.80;99.90;;;;;;5015048;28;20084;-69
2023/01/27 10:51:30;;;;;;;4.25;1.92;;;4.80;99.90;;;;;;5013465;28;20098;-70
2023/01/27 10:54:11;;;;;;;3.20;1.80;;;4.90;99.90;;;;;;5013437;28;20084;-70
2023/01/27 10:56:52;;;;;;;3.13;2.15;;;5.00;99.90;;;;;;5014627;28;20082;-70
2023/01/27 10:59:35;;;;;;;2.20;1.48;;;5.00;99.90;;;;;;5013478;28;20026;-70
2023/01/27 11:02:38;;;;;;;3.00;1.80;;;4.90;99.90;;;;;;5013411;28;20030;-70
2023/01/27 11:05:18;;;;;;;5.93;1.95;;;4.80;99.90;;;;;;5013098;28;20038;-69
2023/01/27 11:07:55;;;;;;;1.98;1.30;;;4.90;99.90;;;;;;5014571;28;20022;-72
2023/01/27 11:10:22;;;;;;;3.08;1.98;;;4.80;99.90;;;;;;5013177;28;20033;-70
2023/01/27 11:12:52;;;;;;;2.55;1.55;;;4.90;99.90;;;;;;5013418;28;20060;-70
2023/01/27 11:15:28;;;;;;;4.80;1.85;;;5.00;99.90;;;;;;5013042;28;20072;-71
2023/01/27 11:18:14;;;;;;;3.20;1.30;;;5.10;99.90;;;;;;5014327;28;20026;-71
2023/01/27 11:20:47;;;;;;;2.20;1.27;;;5.00;99.90;;;;;;5013131;28;20025;-70
2023/01/27 11:23:22;;;;;;;2.30;1.50;;;5.00;99.90;;;;;;5012947;28;20060;-70
2023/01/27 11:26:08;;;;;;;1.55;1.25;;;5.00;99.90;;;;;;5013806;28;20022;-70
2023/01/27 11:28:42;;;;;;;3.65;1.40;;;4.90;99.90;;;;;;5013854;28;20125;-71
2023/01/27 11:31:41;;;;;;;2.90;1.40;;;5.00;99.90;;;;;;5012719;28;20114;-70
2023/01/27 11:34:26;;;;;;;4.38;1.77;;;5.10;99.90;;;;;;5012060;28;20026;-70
2023/01/27 11:36:52;;;;;;;4.78;1.55;;;5.20;99.90;;;;;;5013651;28;20022;-70
2023/01/27 11:39:18;;;;;;;2.53;1.63;;;5.10;99.90;;;;;;5013617;28;20025;-70
2023/01/27 11:41:52;;;;;;;2.55;1.40;;;5.10;99.90;;;;;;5013931;28;20499;-71
2023/01/27 11:44:21;;;;;;;2.30;1.42;;;5.10;99.90;;;;;;5013880;28;20026;-71
2023/01/27 11:46:48;;;;;;;2.97;1.65;;;5.10;99.90;;;;;;5012510;28;20072;-71
2023/01/27 11:49:30;;;;;;;1.67;1.10;;;5.10;99.90;;;;;;5012937;28;20091;-72
2023/01/27 11:52:12;;;;;;;2.20;1.40;;;5.10;99.90;;;;;;5014155;28;20061;-71
2023/01/27 11:54:42;;;;;;;4.00;1.05;;;5.10;99.90;;;;;;4994069;28;20047;-71
2023/01/27 11:57:22;;;;;;;2.33;1.02;;;5.20;99.90;;;;;;4994074;28;20022;-71
2023/01/27 11:59:56;;;;;;;2.38;1.20;;;5.00;99.90;;;;;;4992948;28;20026;-71
2023/01/27 12:02:34;;;;;;;2.28;1.10;;;5.10;99.90;;;;;;4994012;28;20149;-71
2023/01/27 12:05:17;;;;;;;2.03;1.00;;;4.90;99.90;;;;;;4993308;28;20034;-70
2023/01/27 12:07:54;;;;;;;2.25;0.90;;;5.10;99.90;;;;;;4992722;28;20030;-69
2023/01/27 12:10:34;;;;;;;1.70;1.15;;;5.00;99.90;;;;;;4993657;28;20113;-69
2023/01/27 12:13:08;;;;;;;2.17;0.90;;;5.10;99.90;;;;;;4993338;28;20022;-70
2023/01/27 12:15:35;;;;;;;2.05;1.08;;;5.00;99.90;;;;;;4993948;28;20029;-71
2023/01/27 12:18:13;;;;;;;5.15;1.02;;;5.00;99.90;;;;;;4993935;28;20033;-71
2023/01/27 12:20:42;;;;;;;2.08;0.80;;;5.00;99.90;;;;;;4994032;28;20022;-70
2023/01/27 12:23:25;;;;;;;1.55;1.25;;;4.90;99.90;;;;;;4993148;28;20355;-71
2023/01/27 12:26:08;;;;;;;0.93;0.70;;;5.00;99.90;;;;;;4992502;28;20023;-70
2023/01/27 12:28:38;;;;;;;1.02;0.93;;;5.10;99.90;;;;;;4993828;28;20032;-70
2023/01/27 12:31:08;;;;;;;0.77;0.77;;;5.10;99.90;;;;;;4993464;28;20027;-70
2023/01/27 12:33:37;;;;;;;0.80;0.80;;;5.00;99.90;;;;;;4993726;28;20088;-70
2023/01/27 12:36:11;;;;;;;0.60;0.43;;;5.00;99.90;;;;;;4993764;28;20042;-70
2023/01/27 12:38:49;;;;;;;0.75;0.68;;;5.00;99.90;;;;;;4994227;28;20035;-69
2023/01/27 12:41:24;;;;;;;1.17;1.00;;;5.00;99.90;;;;;;4998498;28;20026;-69
2023/01/27 12:44:06;;;;;;;1.38;0.60;;;5.00;99.90;;;;;;5012804;28;20093;-70
2023/01/27 12:46:32;;;;;;;;;;;5.10;99.90;;;;;;5016116;28;20029;-70
2023/01/27 12:49:10;;;;;;;1.73;1.17;;;5.10;99.90;;;;;;5017054;28;19905;-70
2023/01/27 12:51:40;;;;;;;1.67;0.75;;;5.20;99.90;;;;;;5017036;28;20029;-70
2023/01/27 12:54:22;;;;;;;1.17;1.08;;;5.30;99.90;;;;;;5016472;28;20025;-71
2023/01/27 12:56:48;;;;;;;;;;;5.20;99.90;;;;;;5016763;28;20029;-71
2023/01/27 12:59:16;;;;;;;0.93;0.90;;;5.20;99.90;;;;;;5015652;28;20004;-71
2023/01/27 13:05:14;;;;;;;0.88;0.70;;;5.30;99.90;;;;;;5017007;28;20151;-71
2023/01/27 13:07:44;;;;;;;1.48;0.90;;;5.30;99.90;;;;;;5016797;28;20068;-71
2023/01/27 13:10:20;;;;;;;4.28;1.75;;;5.20;99.90;;;;;;5015696;28;20394;-70
2023/01/27 13:13:00;;;;;;;1.10;0.82;;;5.20;99.90;;;;;;5015298;28;20026;-70
2023/01/27 13:15:29;;;;;;;1.45;0.90;;;5.30;99.90;;;;;;5016443;28;20033;-70
2023/01/27 13:18:10;;;;;;;1.23;1.00;;;5.40;99.90;;;;;;5016582;28;20018;-70
2023/01/27 13:20:42;;;;;;;1.40;1.20;;;5.30;99.90;;;;;;5016500;28;20026;-70
2023/01/27 13:23:28;;;;;;;0.88;0.80;;;5.40;99.90;;;;;;5016026;28;20093;-70
2023/01/27 13:26:03;;;;;;;3.50;1.00;;;5.50;99.90;;;;;;5015062;28;20022;-70
2023/01/27 13:28:38;;;;;;;0.98;0.70;;;5.30;99.90;;;;;;5015140;28;20022;-70
2023/01/27 13:31:15;;;;;;;1.20;0.95;;;5.20;99.90;;;;;;5014954;28;20032;-70
2023/01/27 13:33:55;;;;;;;0.98;0.88;;;5.20;99.90;;;;;;5016246;28;20026;-70
2023/01/27 13:36:28;;;;;;;0.80;0.80;;;5.30;99.90;;;;;;5015532;28;20022;-70
2023/01/27 13:39:03;;;;;;;1.00;0.90;;;5.40;99.90;;;;;;5025420;28;20384;-70
2023/01/27 13:41:51;;;;;;;2.10;0.80;;;5.40;99.90;;;;;;5026264;28;20078;-70
2023/01/27 13:44:34;;;;;;;1.00;0.80;;;5.40;99.90;;;;;;5018679;28;20045;-70
2023/01/27 13:47:04;;;;;;;1.60;1.00;;;5.40;99.90;;;;;;5035417;28;20376;-70